Time;durP1;ratioP1;P1;durP2;ratioP2;P2;SDS_P1;SDS_P2;PMS_P1;PMS_P2;Temp;Humidity;BMP_temperature;BMP_pressure;BME280_temperature;BME280_humidity;BME280_pressure;Samples;Min_cycle;Max_cycle;Signal;HPM_P1;HPM_P2
2024/01/22 00:01:23;;;;;;;1.63;0.90;;;2.50;82.30;;;;;;5073959;28;20201;-63
2024/01/22 00:03:49;;;;;;;1.77;0.87;;;2.60;82.30;;;;;;5074206;28;20169;-64
2024/01/22 00:06:15;;;;;;;0.80;0.80;;;2.60;82.40;;;;;;5073964;28;20201;-64
2024/01/22 00:08:40;;;;;;;2.23;0.53;;;2.60;82.60;;;;;;5074076;28;20169;-64
2024/01/22 00:11:06;;;;;;;0.93;0.80;;;2.60;83.00;;;;;;5073942;28;20624;-64
2024/01/22 00:13:31;;;;;;;1.10;1.10;;;2.50;83.20;;;;;;5073806;28;20174;-64
2024/01/22 00:15:57;;;;;;;3.80;1.50;;;2.40;83.60;;;;;;5073883;28;20196;-64
2024/01/22 00:18:23;;;;;;;0.80;0.60;;;2.40;83.90;;;;;;5055807;28;20744;-64
2024/01/22 00:20:48;;;;;;;1.07;0.70;;;2.40;84.80;;;;;;5073608;28;20990;-64
2024/01/22 00:23:14;;;;;;;5.23;1.30;;;2.40;85.40;;;;;;5073745;28;20168;-64
2024/01/22 00:25:40;;;;;;;1.37;1.00;;;2.40;86.00;;;;;;5073780;28;20200;-64
2024/01/22 00:28:06;;;;;;;4.30;0.90;;;2.40;86.30;;;;;;5073402;28;20193;-64
2024/01/22 00:30:31;;;;;;;5.28;1.98;;;2.30;86.70;;;;;;5073478;28;20253;-64
2024/01/22 00:32:57;;;;;;;1.00;0.60;;;2.40;87.20;;;;;;5073505;28;20276;-63
2024/01/22 00:35:23;;;;;;;0.83;0.83;;;2.20;87.70;;;;;;5073529;28;20189;-64
2024/01/22 00:37:48;;;;;;;0.40;0.40;;;2.20;88.90;;;;;;5073699;28;20268;-63
2024/01/22 00:40:14;;;;;;;5.60;0.60;;;2.40;89.70;;;;;;5074228;28;20435;-64
2024/01/22 00:42:42;;;;;;;0.50;0.50;;;2.40;90.00;;;;;;5073127;28;20177;-64
2024/01/22 00:45:08;;;;;;;1.65;0.90;;;2.40;90.30;;;;;;5073414;28;20606;-64
2024/01/22 00:47:34;;;;;;;0.60;0.60;;;2.40;90.40;;;;;;5073338;28;20173;-64
2024/01/22 00:49:59;;;;;;;0.50;0.50;;;2.40;90.50;;;;;;5073272;28;20172;-64
2024/01/22 00:52:25;;;;;;;0.60;0.60;;;2.40;90.60;;;;;;5073041;28;20176;-64
2024/01/22 00:54:51;;;;;;;1.57;0.70;;;2.40;90.70;;;;;;5073126;28;20170;-64
2024/01/22 00:57:16;;;;;;;2.00;0.70;;;2.50;90.80;;;;;;5073094;28;20173;-64
2024/01/22 00:59:42;;;;;;;0.90;0.80;;;2.40;90.80;;;;;;5072994;28;20192;-64
2024/01/22 01:02:07;;;;;;;4.00;1.10;;;2.40;91.00;;;;;;5072713;28;20173;-63
2024/01/22 01:04:33;;;;;;;1.03;0.93;;;2.30;90.90;;;;;;5072985;28;20664;-63
2024/01/22 01:06:59;;;;;;;2.13;1.10;;;2.30;91.00;;;;;;5072977;28;20292;-64
2024/01/22 01:09:25;;;;;;;1.30;0.65;;;2.30;91.10;;;;;;5072906;28;20169;-64
2024/01/22 01:11:50;;;;;;;0.80;0.80;;;2.20;91.40;;;;;;5072525;28;20547;-64
2024/01/22 01:14:16;;;;;;;2.20;0.70;;;2.20;91.70;;;;;;5072883;28;20169;-64
2024/01/22 01:16:41;;;;;;;0.97;0.97;;;2.30;91.60;;;;;;5072847;28;20275;-63
2024/01/22 01:19:07;;;;;;;3.60;1.30;;;2.30;91.60;;;;;;5072746;28;20177;-64
2024/01/22 01:21:33;;;;;;;1.27;1.00;;;2.30;91.40;;;;;;5072440;28;20696;-63
2024/01/22 01:23:58;;;;;;;1.17;0.90;;;2.30;91.30;;;;;;5072641;28;20176;-64
2024/01/22 01:26:24;;;;;;;1.30;0.80;;;2.30;91.50;;;;;;5072429;28;20188;-64
2024/01/22 01:28:49;;;;;;;1.10;0.50;;;2.20;91.60;;;;;;5072520;28;20213;-64
2024/01/22 01:31:15;;;;;;;0.60;0.60;;;2.20;91.90;;;;;;5072353;28;20172;-64
2024/01/22 01:33:40;;;;;;;6.60;0.93;;;2.20;92.10;;;;;;5072329;28;20177;-64
2024/01/22 01:36:06;;;;;;;0.77;0.50;;;2.20;92.20;;;;;;5072339;28;20197;-64
2024/01/22 01:38:32;;;;;;;1.83;0.67;;;2.20;92.30;;;;;;5072368;28;20209;-64
2024/01/22 01:40:57;;;;;;;0.50;0.50;;;2.20;92.50;;;;;;5072010;28;20631;-63
2024/01/22 01:43:23;;;;;;;1.00;0.60;;;2.00;92.60;;;;;;5072193;28;20168;-63
2024/01/22 01:45:48;;;;;;;1.00;0.63;;;2.00;93.00;;;;;;5072119;28;20215;-64
2024/01/22 01:48:14;;;;;;;0.60;0.60;;;2.00;93.10;;;;;;5072166;28;20175;-64
2024/01/22 01:50:40;;;;;;;0.40;0.40;;;2.00;93.00;;;;;;5071818;28;20179;-64
2024/01/22 01:53:07;;;;;;;1.83;0.90;;;2.00;93.00;;;;;;5071529;28;20521;-63
2024/01/22 01:55:35;;;;;;;0.88;0.60;;;2.00;93.20;;;;;;5071869;28;20673;-64
2024/01/22 01:58:01;;;;;;;1.35;0.60;;;2.00;93.30;;;;;;5072052;28;20409;-64
2024/01/22 02:00:28;;;;;;;1.08;0.63;;;1.90;93.50;;;;;;5072851;28;20293;-63
2024/01/22 02:02:53;;;;;;;0.68;0.68;;;2.00;94.10;;;;;;5072536;28;20256;-64
2024/01/22 02:05:19;;;;;;;0.60;0.50;;;1.90;94.40;;;;;;5071809;28;20287;-64
2024/01/22 02:07:46;;;;;;;0.30;0.30;;;1.90;94.90;;;;;;5053925;28;20180;-63
2024/01/22 02:10:15;;;;;;;0.63;0.63;;;1.90;94.80;;;;;;5071621;28;20410;-64
2024/01/22 02:12:40;;;;;;;0.88;0.88;;;1.80;94.60;;;;;;5071563;28;20180;-64
2024/01/22 02:15:06;;;;;;;1.23;0.60;;;1.70;94.50;;;;;;5071970;28;20173;-63
2024/01/22 02:17:32;;;;;;;0.63;0.63;;;1.70;94.80;;;;;;5071747;28;20666;-63
2024/01/22 02:19:58;;;;;;;1.17;1.10;;;1.80;94.90;;;;;;5071565;28;20444;-64
2024/01/22 02:22:23;;;;;;;0.60;0.60;;;1.80;95.00;;;;;;5071481;28;20650;-64
2024/01/22 02:24:49;;;;;;;0.70;0.70;;;1.90;94.80;;;;;;5071485;28;20169;-64
2024/01/22 02:27:15;;;;;;;0.50;0.50;;;1.90;94.80;;;;;;5071669;28;20184;-63
2024/01/22 02:29:41;;;;;;;0.80;0.80;;;1.90;94.70;;;;;;5071594;28;20184;-64
2024/01/22 02:32:07;;;;;;;1.03;0.60;;;2.00;95.00;;;;;;5071264;28;20211;-63
2024/01/22 02:34:32;;;;;;;2.70;0.60;;;1.90;94.90;;;;;;5071602;28;20502;-64
2024/01/22 02:36:58;;;;;;;1.30;0.50;;;1.90;94.90;;;;;;5071532;28;20241;-64
2024/01/22 02:39:24;;;;;;;0.80;0.80;;;1.90;95.00;;;;;;5071298;28;20177;-64
2024/01/22 02:41:49;;;;;;;0.33;0.33;;;1.90;95.00;;;;;;5071203;28;20201;-64
2024/01/22 02:44:15;;;;;;;1.00;0.40;;;1.90;95.00;;;;;;5071379;28;20187;-64
2024/01/22 02:46:41;;;;;;;0.60;0.60;;;1.90;94.80;;;;;;5071392;28;20191;-64
2024/01/22 02:49:09;;;;;;;0.70;0.50;;;1.90;94.80;;;;;;5071376;28;20168;-63
2024/01/22 02:51:34;;;;;;;1.17;0.60;;;1.90;94.90;;;;;;5071100;28;20184;-64
2024/01/22 02:54:00;;;;;;;0.53;0.47;;;2.00;95.30;;;;;;5071204;28;20657;-64
2024/01/22 02:56:26;;;;;;;0.60;0.40;;;1.90;95.60;;;;;;5071256;28;20799;-64
2024/01/22 02:58:51;;;;;;;0.70;0.70;;;2.00;95.60;;;;;;5071278;28;20243;-64
2024/01/22 03:01:17;;;;;;;0.63;0.63;;;2.00;95.50;;;;;;5071065;28;20291;-64
2024/01/22 03:03:43;;;;;;;0.70;0.67;;;2.10;95.50;;;;;;5073813;28;20300;-64
2024/01/22 03:06:08;;;;;;;2.83;0.60;;;2.00;95.40;;;;;;5075129;28;20248;-63
2024/01/22 03:08:34;;;;;;;0.93;0.60;;;2.10;95.20;;;;;;5075097;28;20704;-64
2024/01/22 03:11:00;;;;;;;0.63;0.63;;;2.10;95.20;;;;;;5075023;28;20413;-64
2024/01/22 03:13:26;;;;;;;0.63;0.52;;;2.10;95.50;;;;;;5074962;28;20413;-64
2024/01/22 03:15:54;;;;;;;0.40;0.40;;;2.10;95.10;;;;;;5075090;28;20194;-64
2024/01/22 03:18:20;;;;;;;0.50;0.50;;;2.20;95.00;;;;;;5075009;28;20177;-64
2024/01/22 03:20:46;;;;;;;0.70;0.70;;;2.10;95.00;;;;;;5074811;28;20266;-64
2024/01/22 03:23:11;;;;;;;1.13;0.67;;;2.20;95.10;;;;;;5077408;28;20634;-64
2024/01/22 03:25:37;;;;;;;0.67;0.40;;;2.20;95.00;;;;;;5075319;28;20192;-64
2024/01/22 03:28:03;;;;;;;1.07;0.60;;;2.20;95.00;;;;;;5075230;28;20196;-64
2024/01/22 03:30:28;;;;;;;0.90;0.70;;;2.20;95.00;;;;;;5075055;28;20227;-64
2024/01/22 03:32:54;;;;;;;0.70;0.60;;;2.20;95.00;;;;;;5074770;28;20178;-64
2024/01/22 03:35:20;;;;;;;0.53;0.53;;;2.30;95.10;;;;;;5074703;28;20611;-64
2024/01/22 03:37:46;;;;;;;0.70;0.63;;;2.30;95.10;;;;;;5074620;28;20174;-64
2024/01/22 03:40:14;;;;;;;0.60;0.60;;;2.30;95.00;;;;;;5074493;28;20230;-64
2024/01/22 03:42:40;;;;;;;0.40;0.40;;;2.30;94.90;;;;;;5074333;28;20478;-64
2024/01/22 03:45:06;;;;;;;0.70;0.70;;;2.40;94.90;;;;;;5074559;28;20212;-64
2024/01/22 03:47:32;;;;;;;5.65;0.63;;;2.40;94.90;;;;;;5056569;28;20529;-64
2024/01/22 03:49:57;;;;;;;0.50;0.50;;;2.50;94.70;;;;;;5074365;28;20311;-63
2024/01/22 03:52:23;;;;;;;0.50;0.50;;;2.50;94.60;;;;;;5072668;28;20177;-64
2024/01/22 03:54:48;;;;;;;0.40;0.40;;;2.50;94.40;;;;;;5074342;28;20278;-64
2024/01/22 03:57:14;;;;;;;0.50;0.40;;;2.60;94.30;;;;;;5074552;28;20582;-64
2024/01/22 03:59:42;;;;;;;0.40;0.40;;;2.70;94.20;;;;;;5074382;28;20250;-64
2024/01/22 04:02:07;;;;;;;3.22;0.50;;;2.60;94.20;;;;;;5074243;28;20635;-64
2024/01/22 04:04:34;;;;;;;0.77;0.63;;;2.60;94.40;;;;;;5074010;28;20177;-64
2024/01/22 04:06:59;;;;;;;1.45;1.10;;;2.60;94.40;;;;;;5074049;28;20444;-64
2024/01/22 04:09:25;;;;;;;0.70;0.70;;;2.60;94.40;;;;;;5074108;28;20172;-64
2024/01/22 04:11:51;;;;;;;0.40;0.40;;;2.60;94.40;;;;;;5073660;28;20499;-64
2024/01/22 04:14:16;;;;;;;0.40;0.40;;;2.70;94.20;;;;;;5073223;28;20170;-64
2024/01/22 04:16:44;;;;;;;1.90;0.60;;;2.70;94.20;;;;;;5073901;28;20190;-64
2024/01/22 04:19:10;;;;;;;0.77;0.77;;;2.70;94.30;;;;;;5073925;28;20646;-64
2024/01/22 04:21:46;;;;;;;0.65;0.65;;;2.70;94.40;;;;;;5073695;28;20215;-64
2024/01/22 04:24:12;;;;;;;0.50;0.50;;;2.50;94.30;;;;;;5073940;28;20673;-64
2024/01/22 04:26:38;;;;;;;0.70;0.70;;;2.60;94.40;;;;;;5073726;28;20193;-64
2024/01/22 04:29:03;;;;;;;0.70;0.70;;;2.70;94.50;;;;;;5073729;28;20423;-64
2024/01/22 04:31:29;;;;;;;0.80;0.80;;;2.80;94.60;;;;;;5073456;28;20260;-64
2024/01/22 04:33:55;;;;;;;0.70;0.70;;;3.00;94.50;;;;;;5073565;28;20185;-64
2024/01/22 04:36:21;;;;;;;1.37;0.60;;;3.10;94.10;;;;;;5073573;28;20197;-64
2024/01/22 04:38:46;;;;;;;0.50;0.50;;;3.20;94.10;;;;;;5055174;28;20176;-64
2024/01/22 04:41:12;;;;;;;0.93;0.60;;;3.20;94.00;;;;;;5073206;28;20466;-64
2024/01/22 04:43:39;;;;;;;0.50;0.50;;;3.20;93.60;;;;;;5073323;28;20172;-64
2024/01/22 04:46:04;;;;;;;0.70;0.70;;;3.10;93.70;;;;;;5074366;28;20190;-64
2024/01/22 04:48:30;;;;;;;0.70;0.70;;;3.20;93.80;;;;;;5073405;28;20170;-64
2024/01/22 04:50:55;;;;;;;0.50;0.50;;;3.10;93.90;;;;;;5073199;28;20219;-64
2024/01/22 04:53:21;;;;;;;0.50;0.50;;;3.10;94.10;;;;;;5073086;28;20648;-64
2024/01/22 04:55:46;;;;;;;0.40;0.40;;;3.20;94.40;;;;;;5073063;28;20193;-64
2024/01/22 04:58:12;;;;;;;0.60;0.60;;;3.30;94.40;;;;;;5073194;28;20161;-64
2024/01/22 05:00:38;;;;;;;0.77;0.77;;;3.40;94.50;;;;;;5072863;28;20193;-63
2024/01/22 05:03:04;;;;;;;1.70;0.80;;;3.50;94.40;;;;;;5073063;28;20253;-64
2024/01/22 05:05:34;;;;;;;0.63;0.63;;;3.50;94.20;;;;;;5072921;28;20956;-64
2024/01/22 05:08:00;;;;;;;0.40;0.40;;;3.40;94.30;;;;;;5072904;28;20169;-64
2024/01/22 05:10:26;;;;;;;1.50;1.07;;;3.50;94.10;;;;;;5072782;28;20533;-64
2024/01/22 05:12:52;;;;;;;1.08;0.60;;;3.60;94.10;;;;;;5072751;28;20408;-64
2024/01/22 05:15:18;;;;;;;0.70;0.68;;;3.70;94.00;;;;;;5072812;28;20413;-64
2024/01/22 05:17:43;;;;;;;0.50;0.50;;;3.80;93.80;;;;;;5072855;28;20169;-64
2024/01/22 05:20:09;;;;;;;0.57;0.57;;;3.70;93.70;;;;;;5072598;28;20186;-64
2024/01/22 05:22:35;;;;;;;1.02;0.90;;;3.80;93.80;;;;;;5072368;28;20181;-64
2024/01/22 05:25:01;;;;;;;0.55;0.55;;;3.90;93.70;;;;;;5072812;28;20169;-64
2024/01/22 05:27:28;;;;;;;0.60;0.60;;;4.00;93.30;;;;;;5071621;28;20215;-64
2024/01/22 05:29:54;;;;;;;0.70;0.60;;;4.10;93.10;;;;;;5072524;28;20184;-63
2024/01/22 05:32:19;;;;;;;1.70;0.77;;;4.10;93.10;;;;;;5072256;28;20177;-64
2024/01/22 05:34:45;;;;;;;0.60;0.60;;;4.20;92.70;;;;;;5072490;28;20669;-65
2024/01/22 05:37:10;;;;;;;1.50;1.40;;;4.40;92.00;;;;;;5072288;28;20202;-64
2024/01/22 05:39:36;;;;;;;1.07;0.70;;;4.40;92.10;;;;;;5072219;28;20208;-64
2024/01/22 05:42:03;;;;;;;0.50;0.50;;;4.50;91.90;;;;;;5072017;28;20174;-64
2024/01/22 05:44:29;;;;;;;1.70;0.80;;;4.60;91.40;;;;;;5072442;28;20182;-64
2024/01/22 05:46:54;;;;;;;3.30;0.90;;;4.70;90.80;;;;;;5072134;28;20190;-64
2024/01/22 05:49:20;;;;;;;0.60;0.50;;;4.70;91.20;;;;;;5072216;28;20599;-64
2024/01/22 05:51:47;;;;;;;3.63;0.87;;;4.70;90.60;;;;;;5071818;28;20189;-64
2024/01/22 05:54:13;;;;;;;1.95;0.80;;;4.90;89.30;;;;;;5072028;28;20407;-64
2024/01/22 05:56:39;;;;;;;0.60;0.60;;;5.10;89.50;;;;;;5071966;28;20193;-64
2024/01/22 05:59:04;;;;;;;0.73;0.70;;;5.20;88.10;;;;;;5072093;28;20593;-64
2024/01/22 06:01:30;;;;;;;1.23;0.90;;;5.30;86.20;;;;;;5071818;28;20280;-64
2024/01/22 06:03:56;;;;;;;0.70;0.63;;;5.50;86.30;;;;;;5071866;28;20265;-64
2024/01/22 06:06:21;;;;;;;1.47;0.93;;;5.40;85.00;;;;;;5071844;28;20284;-63
2024/01/22 06:08:49;;;;;;;0.70;0.50;;;5.50;85.70;;;;;;5072873;28;20246;-64
2024/01/22 06:11:17;;;;;;;1.83;0.45;;;5.50;82.40;;;;;;5071514;28;20228;-64
2024/01/22 06:13:43;;;;;;;1.05;0.50;;;5.80;80.50;;;;;;5071714;28;20179;-64
2024/01/22 06:16:10;;;;;;;2.83;1.00;;;6.00;79.90;;;;;;5072064;28;20243;-64
2024/01/22 06:18:36;;;;;;;1.02;0.90;;;6.20;80.10;;;;;;5071728;28;20486;-64
2024/01/22 06:21:04;;;;;;;0.93;0.70;;;6.30;79.00;;;;;;5071405;28;20220;-64
2024/01/22 06:23:30;;;;;;;0.60;0.60;;;6.40;77.90;;;;;;5071531;28;20166;-64
2024/01/22 06:25:58;;;;;;;0.47;0.47;;;6.50;77.40;;;;;;5071633;28;20254;-64
2024/01/22 06:28:25;;;;;;;1.25;0.60;;;6.50;76.00;;;;;;5071812;28;20190;-64
2024/01/22 06:30:51;;;;;;;0.75;0.60;;;6.60;76.10;;;;;;5071540;28;20541;-64
2024/01/22 06:33:18;;;;;;;0.70;0.57;;;6.60;75.90;;;;;;5071322;28;20173;-64
2024/01/22 06:35:44;;;;;;;0.50;0.50;;;6.60;75.70;;;;;;5071484;28;20204;-64
2024/01/22 06:38:10;;;;;;;1.20;1.10;;;6.60;74.80;;;;;;5071137;28;20180;-64
2024/01/22 06:40:36;;;;;;;1.02;0.57;;;6.60;75.60;;;;;;5071272;28;20200;-64
2024/01/22 06:43:02;;;;;;;0.80;0.70;;;6.60;75.00;;;;;;5071501;28;20172;-64
2024/01/22 06:45:28;;;;;;;0.70;0.70;;;6.50;75.60;;;;;;5071396;28;20247;-64
2024/01/22 06:47:53;;;;;;;0.73;0.47;;;6.50;75.40;;;;;;5071434;28;20247;-64
2024/01/22 06:50:19;;;;;;;0.90;0.60;;;6.70;74.70;;;;;;5071290;28;20405;-64
2024/01/22 06:52:48;;;;;;;0.50;0.50;;;6.80;74.70;;;;;;5071187;28;20339;-64
2024/01/22 06:55:14;;;;;;;0.88;0.68;;;6.90;74.30;;;;;;5071406;28;20641;-64
2024/01/22 06:57:39;;;;;;;0.60;0.60;;;7.00;73.10;;;;;;5071377;28;20214;-64
2024/01/22 07:00:09;;;;;;;2.10;1.00;;;7.20;72.80;;;;;;5070921;28;20232;-64
2024/01/22 07:02:35;;;;;;;0.70;0.70;;;7.20;73.00;;;;;;5070989;28;20178;-64
2024/01/22 07:05:04;;;;;;;1.05;0.90;;;7.30;72.30;;;;;;5071031;28;20180;-64
2024/01/22 07:07:30;;;;;;;3.15;0.93;;;7.40;72.30;;;;;;5071324;28;20272;-64
2024/01/22 07:09:56;;;;;;;1.30;0.93;;;7.50;72.10;;;;;;5070955;28;20181;-64
2024/01/22 07:12:23;;;;;;;0.90;0.60;;;7.60;71.80;;;;;;5070707;28;20415;-64
2024/01/22 07:14:49;;;;;;;1.27;1.05;;;7.60;71.30;;;;;;5071163;28;20543;-64
2024/01/22 07:17:21;;;;;;;1.20;1.10;;;7.60;72.30;;;;;;5071613;28;20173;-64
2024/01/22 07:19:47;;;;;;;0.70;0.70;;;7.60;72.60;;;;;;5071016;28;20400;-64
2024/01/22 07:22:12;;;;;;;1.08;1.08;;;7.60;72.30;;;;;;5070736;28;20180;-64
2024/01/22 07:24:38;;;;;;;1.30;1.20;;;7.70;72.00;;;;;;5071085;28;20177;-64
2024/01/22 07:27:04;;;;;;;0.70;0.70;;;7.80;72.70;;;;;;5070693;28;20196;-64
2024/01/22 07:29:32;;;;;;;1.52;0.65;;;7.80;73.00;;;;;;5073891;28;20404;-64
2024/01/22 07:31:58;;;;;;;0.70;0.70;;;7.80;73.90;;;;;;5071261;28;20177;-64
2024/01/22 07:34:25;;;;;;;0.70;0.70;;;7.90;75.10;;;;;;5071006;28;20171;-63
2024/01/22 07:36:51;;;;;;;0.95;0.85;;;8.10;75.10;;;;;;5070910;28;20197;-64
2024/01/22 07:39:17;;;;;;;2.17;0.73;;;8.10;75.70;;;;;;5070938;28;20666;-64
2024/01/22 07:41:42;;;;;;;1.20;0.90;;;8.20;75.90;;;;;;5070636;28;20251;-64
2024/01/22 07:44:08;;;;;;;0.73;0.47;;;8.20;76.60;;;;;;5070883;28;20164;-64
2024/01/22 07:46:34;;;;;;;0.50;0.50;;;8.20;77.00;;;;;;5070717;28;20259;-64
2024/01/22 07:49:00;;;;;;;0.80;0.60;;;8.20;76.60;;;;;;5070662;28;20191;-64
2024/01/22 07:51:25;;;;;;;0.67;0.50;;;8.20;77.60;;;;;;5074002;28;20408;-64
2024/01/22 07:53:51;;;;;;;1.03;0.70;;;8.20;77.40;;;;;;5074276;28;20174;-64
2024/01/22 07:56:17;;;;;;;0.80;0.50;;;8.30;78.00;;;;;;5074322;28;20577;-64
2024/01/22 07:58:44;;;;;;;0.97;0.70;;;8.30;78.60;;;;;;5074268;28;20277;-64
2024/01/22 08:01:10;;;;;;;0.52;0.52;;;8.30;80.10;;;;;;5073746;28;20443;-64
2024/01/22 08:03:35;;;;;;;0.50;0.50;;;8.30;82.70;;;;;;5073594;28;20533;-64
2024/01/22 08:06:01;;;;;;;0.60;0.60;;;8.40;85.70;;;;;;5073313;28;20208;-63
2024/01/22 08:08:28;;;;;;;0.87;0.60;;;8.50;87.60;;;;;;5073655;28;20169;-64
2024/01/22 08:10:54;;;;;;;0.60;0.60;;;8.50;88.20;;;;;;5055780;28;20984;-63
2024/01/22 08:13:21;;;;;;;1.03;0.73;;;8.50;88.60;;;;;;5073730;28;20303;-64
2024/01/22 08:15:47;;;;;;;1.15;0.40;;;8.50;89.50;;;;;;5073792;28;20520;-63
2024/01/22 08:18:13;;;;;;;0.40;0.40;;;8.50;90.60;;;;;;5056670;28;20174;-63
2024/01/22 08:20:39;;;;;;;0.40;0.40;;;8.60;91.00;;;;;;5073192;28;20228;-64
2024/01/22 08:23:05;;;;;;;2.13;2.03;;;8.70;91.20;;;;;;5073413;28;20223;-64
2024/01/22 08:25:31;;;;;;;4.00;2.50;;;8.70;91.20;;;;;;5073456;28;20193;-64
2024/01/22 08:27:58;;;;;;;1.07;0.97;;;8.70;90.90;;;;;;5073362;28;20709;-64
2024/01/22 08:30:24;;;;;;;0.50;0.40;;;8.70;90.90;;;;;;5072656;28;20166;-64
2024/01/22 08:32:51;;;;;;;1.00;0.60;;;8.60;90.90;;;;;;5073524;28;20173;-64
2024/01/22 08:35:18;;;;;;;1.25;0.60;;;8.60;91.00;;;;;;5073493;28;20243;-63
2024/01/22 08:37:50;;;;;;;0.40;0.40;;;8.50;91.00;;;;;;5073646;28;20178;-64
2024/01/22 08:40:21;;;;;;;0.40;0.40;;;8.60;91.30;;;;;;5073520;28;20254;-64
2024/01/22 08:42:52;;;;;;;0.50;0.50;;;8.70;91.20;;;;;;5073312;28;20169;-64
2024/01/22 08:45:18;;;;;;;2.95;0.47;;;8.70;91.30;;;;;;5073671;28;20178;-64
2024/01/22 08:47:45;;;;;;;1.02;0.50;;;8.80;91.20;;;;;;5073483;28;20169;-64
2024/01/22 08:50:15;;;;;;;0.50;0.50;;;8.90;90.80;;;;;;5073505;28;20176;-64
2024/01/22 08:52:42;;;;;;;0.60;0.50;;;9.00;91.00;;;;;;5074025;28;20483;-64
2024/01/22 08:55:09;;;;;;;0.30;0.30;;;9.10;90.80;;;;;;5073149;28;20173;-64
2024/01/22 08:57:35;;;;;;;1.17;0.98;;;9.20;90.60;;;;;;5073515;28;20532;-64
2024/01/22 09:00:05;;;;;;;0.82;0.82;;;9.30;89.30;;;;;;5073015;28;20223;-64
2024/01/22 09:02:31;;;;;;;0.85;0.85;;;9.30;88.70;;;;;;5072858;28;20178;-64
2024/01/22 09:04:57;;;;;;;0.60;0.50;;;9.30;88.40;;;;;;5054889;28;20184;-64
2024/01/22 09:07:23;;;;;;;1.40;0.70;;;9.40;88.10;;;;;;5073100;28;20184;-64
2024/01/22 09:09:50;;;;;;;0.50;0.50;;;9.50;87.80;;;;;;5072886;28;20201;-64
2024/01/22 09:12:18;;;;;;;0.80;0.80;;;9.40;87.70;;;;;;5072929;28;20609;-64
2024/01/22 09:14:44;;;;;;;0.60;0.60;;;9.20;87.90;;;;;;5073100;28;20174;-64
2024/01/22 09:17:09;;;;;;;1.77;0.93;;;9.20;88.40;;;;;;5072604;28;20189;-63
2024/01/22 09:19:35;;;;;;;2.20;0.53;;;9.20;88.30;;;;;;5072374;28;20166;-64
2024/01/22 09:22:01;;;;;;;0.53;0.53;;;9.10;88.50;;;;;;5072038;28;20170;-65
2024/01/22 09:24:26;;;;;;;0.53;0.50;;;9.10;88.60;;;;;;5072578;28;20165;-64
2024/01/22 09:26:52;;;;;;;0.73;0.70;;;9.00;88.60;;;;;;5072556;28;20194;-65
2024/01/22 09:29:18;;;;;;;0.93;0.70;;;9.10;88.60;;;;;;5072566;28;20158;-62
2024/01/22 09:31:43;;;;;;;0.70;0.70;;;9.10;88.60;;;;;;5072255;28;20173;-62
2024/01/22 09:34:10;;;;;;;0.77;0.77;;;9.10;89.00;;;;;;5072657;28;20592;-62
2024/01/22 09:36:36;;;;;;;0.60;0.50;;;9.10;89.70;;;;;;5072329;28;20717;-63
2024/01/22 09:39:01;;;;;;;0.50;0.50;;;9.10;89.60;;;;;;5072273;28;20174;-63
2024/01/22 09:41:27;;;;;;;0.50;0.50;;;9.20;89.60;;;;;;5072144;28;20763;-62
2024/01/22 09:43:54;;;;;;;0.60;0.60;;;9.20;90.00;;;;;;5071852;28;20437;-62
2024/01/22 09:46:21;;;;;;;0.65;0.60;;;9.10;90.00;;;;;;5071853;28;20678;-62
2024/01/22 09:48:50;;;;;;;0.52;0.52;;;9.30;90.10;;;;;;5071815;28;20169;-61
2024/01/22 09:51:17;;;;;;;0.95;0.47;;;9.30;90.40;;;;;;5071584;28;20590;-61
2024/01/22 09:53:47;;;;;;;1.10;0.40;;;9.40;90.50;;;;;;5072034;28;20186;-62
2024/01/22 09:56:16;;;;;;;0.73;0.50;;;9.40;90.80;;;;;;5072167;28;20186;-62
2024/01/22 09:58:45;;;;;;;0.55;0.50;;;9.40;91.00;;;;;;5053798;28;20403;-62
2024/01/22 10:01:11;;;;;;;0.50;0.50;;;9.50;91.30;;;;;;5071734;28;20236;-62
2024/01/22 10:03:37;;;;;;;0.70;0.55;;;9.50;91.40;;;;;;5071746;28;20181;-62
2024/01/22 10:06:04;;;;;;;0.63;0.60;;;9.30;92.10;;;;;;5071646;28;20240;-62
2024/01/22 10:08:30;;;;;;;0.70;0.50;;;9.20;93.00;;;;;;5071846;28;20196;-62
2024/01/22 10:10:55;;;;;;;0.57;0.50;;;9.20;93.00;;;;;;5071637;28;20170;-62
2024/01/22 10:13:21;;;;;;;0.93;0.60;;;9.00;93.80;;;;;;5072008;28;20675;-62
2024/01/22 10:15:47;;;;;;;0.40;0.40;;;9.00;94.10;;;;;;5071920;28;20223;-62
2024/01/22 10:18:15;;;;;;;1.08;0.70;;;9.10;94.50;;;;;;5071657;28;20178;-61
2024/01/22 10:20:43;;;;;;;1.00;0.73;;;9.20;94.30;;;;;;5071401;28;20713;-62
2024/01/22 10:23:13;;;;;;;0.60;0.60;;;9.20;94.40;;;;;;5071353;28;20174;-62
2024/01/22 10:25:39;;;;;;;0.93;0.88;;;9.20;94.50;;;;;;5070863;28;20675;-61
2024/01/22 10:28:08;;;;;;;0.50;0.50;;;9.20;94.40;;;;;;5071434;28;20184;-62
2024/01/22 10:30:37;;;;;;;1.15;1.05;;;9.30;94.70;;;;;;5071408;28;20181;-61
2024/01/22 10:33:16;;;;;;;0.63;0.63;;;9.30;94.80;;;;;;5071068;28;20177;-62
2024/01/22 10:35:44;;;;;;;0.85;0.60;;;9.30;94.50;;;;;;5071458;28;20208;-61
2024/01/22 10:38:11;;;;;;;0.60;0.60;;;9.30;94.30;;;;;;5071359;28;20264;-62
2024/01/22 10:40:37;;;;;;;0.70;0.60;;;9.30;94.50;;;;;;5071170;28;20550;-62
2024/01/22 10:43:27;;;;;;;0.75;0.75;;;9.30;94.60;;;;;;5071346;28;20516;-62
2024/01/22 10:45:54;;;;;;;5.75;0.90;;;9.40;94.70;;;;;;5071416;28;20627;-61
2024/01/22 10:48:25;;;;;;;2.60;0.85;;;9.60;94.50;;;;;;5071430;28;20253;-62
2024/01/22 10:50:54;;;;;;;0.80;0.70;;;9.70;94.70;;;;;;5071310;28;20178;-62
2024/01/22 10:53:20;;;;;;;0.70;0.70;;;9.80;94.40;;;;;;5071271;28;20256;-62
2024/01/22 10:56:11;;;;;;;0.77;0.77;;;10.10;93.50;;;;;;5071489;28;20247;-61
2024/01/22 10:58:44;;;;;;;0.65;0.50;;;10.30;93.30;;;;;;5071420;28;20230;-62
2024/01/22 11:01:22;;;;;;;0.63;0.63;;;10.40;93.00;;;;;;5071024;28;20560;-62
2024/01/22 11:03:55;;;;;;;0.90;0.90;;;10.60;93.00;;;;;;5070802;28;20169;-62
2024/01/22 11:06:23;;;;;;;0.40;0.40;;;10.50;92.70;;;;;;5071238;28;20293;-62
2024/01/22 11:08:53;;;;;;;0.70;0.65;;;10.60;92.90;;;;;;5071463;28;20204;-62
2024/01/22 11:11:26;;;;;;;0.65;0.65;;;10.60;93.00;;;;;;5071095;28;20170;-62
2024/01/22 11:13:58;;;;;;;0.50;0.50;;;10.70;93.30;;;;;;5070625;28;20172;-62
2024/01/22 11:16:24;;;;;;;0.80;0.80;;;10.80;93.80;;;;;;5053289;28;20443;-62
2024/01/22 11:19:04;;;;;;;2.13;0.90;;;10.80;93.90;;;;;;5052837;28;20511;-62
2024/01/22 11:21:34;;;;;;;0.80;0.80;;;10.80;93.90;;;;;;5070586;28;20538;-62
2024/01/22 11:24:04;;;;;;;1.65;1.55;;;10.70;94.90;;;;;;5070967;28;20495;-62
2024/01/22 11:26:30;;;;;;;0.60;0.60;;;10.70;95.70;;;;;;5074729;28;20285;-62
2024/01/22 11:29:08;;;;;;;0.77;0.77;;;10.60;96.30;;;;;;5075249;28;20503;-62
2024/01/22 11:31:35;;;;;;;0.63;0.63;;;10.60;96.50;;;;;;5074198;28;20177;-62
2024/01/22 11:34:02;;;;;;;0.90;0.60;;;10.60;96.60;;;;;;5075005;28;20788;-62
2024/01/22 11:36:48;;;;;;;0.43;0.43;;;10.40;97.40;;;;;;5075808;28;20420;-62
2024/01/22 11:39:35;;;;;;;0.50;0.50;;;10.40;97.80;;;;;;5060702;28;20422;-62
2024/01/22 11:42:16;;;;;;;3.80;0.67;;;10.50;98.10;;;;;;5074142;28;20466;-62
2024/01/22 11:44:46;;;;;;;2.77;0.90;;;10.40;98.70;;;;;;5074680;28;20408;-61
2024/01/22 11:47:12;;;;;;;1.40;1.23;;;10.40;99.00;;;;;;5074516;28;20419;-62
2024/01/22 11:49:38;;;;;;;0.77;0.77;;;10.30;99.10;;;;;;5074546;28;20468;-62
2024/01/22 11:52:14;;;;;;;0.70;0.70;;;10.30;99.40;;;;;;5074171;28;20182;-62
2024/01/22 11:54:58;;;;;;;0.93;0.80;;;10.30;99.70;;;;;;5074356;28;20410;-62
2024/01/22 11:57:26;;;;;;;0.80;0.80;;;10.10;99.90;;;;;;5074468;28;20200;-62
2024/01/22 12:00:05;;;;;;;0.60;0.60;;;10.10;99.90;;;;;;5074196;28;20170;-61
2024/01/22 12:02:31;;;;;;;0.80;0.60;;;10.10;99.90;;;;;;5074009;28;20546;-61
2024/01/22 12:05:06;;;;;;;1.15;0.90;;;10.10;99.90;;;;;;5074281;28;20856;-62
2024/01/22 12:07:37;;;;;;;1.33;1.17;;;10.10;99.90;;;;;;5074223;28;20261;-62
2024/01/22 12:10:06;;;;;;;1.10;0.43;;;10.10;99.90;;;;;;5074127;28;20404;-62
2024/01/22 12:12:32;;;;;;;4.85;2.45;;;10.00;99.90;;;;;;5073915;28;20499;-62
2024/01/22 12:14:59;;;;;;;1.73;1.37;;;10.00;99.90;;;;;;5073983;28;20719;-61
2024/01/22 12:17:25;;;;;;;0.60;0.60;;;9.90;99.90;;;;;;5073932;28;20177;-61
2024/01/22 12:19:56;;;;;;;0.70;0.70;;;9.70;99.90;;;;;;5073917;28;20181;-62
2024/01/22 12:22:25;;;;;;;2.80;1.15;;;9.60;99.90;;;;;;5073799;28;20260;-62
2024/01/22 12:25:11;;;;;;;0.73;0.50;;;9.50;99.90;;;;;;5074001;28;20553;-61
2024/01/22 12:27:37;;;;;;;16.13;8.07;;;9.50;99.90;;;;;;5073739;28;20185;-62
2024/01/22 12:30:12;;;;;;;6.30;3.95;;;9.60;99.90;;;;;;5073700;28;20202;-61
2024/01/22 12:32:38;;;;;;;0.93;0.93;;;9.40;99.90;;;;;;5073652;28;20583;-62
2024/01/22 12:35:06;;;;;;;0.60;0.60;;;9.30;99.90;;;;;;5073246;28;20185;-61
2024/01/22 12:37:34;;;;;;;0.77;0.77;;;9.40;99.90;;;;;;5073726;28;20347;-62
2024/01/22 12:40:09;;;;;;;0.50;0.50;;;9.30;99.90;;;;;;5073429;28;20595;-61
2024/01/22 12:42:35;;;;;;;2.28;1.27;;;9.20;99.90;;;;;;5073323;28;20200;-62
2024/01/22 12:45:01;;;;;;;0.70;0.70;;;9.10;99.90;;;;;;5073359;28;20190;-61
2024/01/22 12:47:28;;;;;;;0.95;0.70;;;9.20;99.90;;;;;;5073466;28;20173;-62
2024/01/22 12:49:53;;;;;;;2.08;0.70;;;9.30;99.90;;;;;;5073406;28;20215;-61
2024/01/22 12:52:22;;;;;;;0.70;0.70;;;9.40;99.90;;;;;;5073137;28;20204;-62
2024/01/22 12:54:48;;;;;;;2.50;2.30;;;9.30;99.90;;;;;;5073256;28;20284;-62